Time;durP1;ratioP1;P1;durP2;ratioP2;P2;SDS_P1;SDS_P2;PMS_P1;PMS_P2;Temp;Humidity;BMP_temperature;BMP_pressure;BME280_temperature;BME280_humidity;BME280_pressure;Samples;Min_cycle;Max_cycle;Signal;HPM_P1;HPM_P2
2022/04/14 00:02:59;;;;;;;;;;;;;;;21.47;37.11;95542.00;10471336;28;1831;-51
2022/04/14 00:07:59;;;;;;;;;;;;;;;21.45;36.88;95542.25;10448064;28;1930;-55
2022/04/14 00:12:59;;;;;;;;;;;;;;;21.44;36.81;95547.84;10450557;28;1815;-56
2022/04/14 00:18:00;;;;;;;;;;;;;;;21.43;36.71;95554.94;10453910;28;1914;-56
2022/04/14 00:23:00;;;;;;;;;;;;;;;21.44;36.58;95553.09;10453253;28;1924;-55
2022/04/14 00:28:00;;;;;;;;;;;;;;;21.47;36.37;95565.75;10451362;28;1988;-54
2022/04/14 00:33:01;;;;;;;;;;;;;;;21.47;36.36;95557.81;10451678;28;1827;-56
2022/04/14 00:38:03;;;;;;;;;;;;;;;21.47;36.47;95563.09;10444503;28;2248;-53
2022/04/14 00:43:03;;;;;;;;;;;;;;;21.50;36.03;95568.59;10456072;28;1900;-57
2022/04/14 00:48:03;;;;;;;;;;;;;;;21.49;36.21;95566.25;10466301;28;1945;-56
2022/04/14 00:53:05;;;;;;;;;;;;;;;21.49;35.94;95564.41;10434521;28;1963;-54
2022/04/14 00:58:05;;;;;;;;;;;;;;;21.53;35.81;95561.97;10434177;28;1786;-56
2022/04/14 01:03:06;;;;;;;;;;;;;;;21.54;35.70;95563.53;10450118;28;1858;-54
2022/04/14 01:08:06;;;;;;;;;;;;;;;21.53;35.91;95567.25;10445551;28;1890;-55
2022/04/14 01:13:10;;;;;;;;;;;;;;;21.53;35.56;95572.50;10451524;28;1819;-56
2022/04/14 01:18:12;;;;;;;;;;;;;;;21.50;35.55;95581.78;10451433;28;1897;-53
2022/04/14 01:23:14;;;;;;;;;;;;;;;21.51;35.46;95580.72;10450515;28;1798;-53
2022/04/14 01:28:19;;;;;;;;;;;;;;;21.48;35.71;95586.53;10435069;28;2074;-56
2022/04/14 01:33:24;;;;;;;;;;;;;;;21.47;35.45;95587.63;10451164;28;2052;-56
2022/04/14 01:38:24;;;;;;;;;;;;;;;21.47;35.41;95595.53;10450409;28;1832;-56
2022/04/14 01:43:24;;;;;;;;;;;;;;;21.47;35.55;95589.47;10446603;28;2178;-56
2022/04/14 01:48:25;;;;;;;;;;;;;;;21.46;35.44;95604.50;10450778;28;2285;-54
2022/04/14 01:53:27;;;;;;;;;;;;;;;21.45;35.43;95597.66;10450169;28;2050;-52
2022/04/14 01:58:27;;;;;;;;;;;;;;;21.47;35.37;95605.28;10446060;28;1817;-55
2022/04/14 02:03:27;;;;;;;;;;;;;;;21.48;35.41;95599.72;10448825;28;2103;-56
2022/04/14 02:08:29;;;;;;;;;;;;;;;21.49;35.07;95605.81;10441280;28;1971;-55
2022/04/14 02:13:29;;;;;;;;;;;;;;;21.51;34.98;95608.94;10447507;28;2063;-56
2022/04/14 02:18:30;;;;;;;;;;;;;;;21.49;35.02;95609.22;10448652;28;1764;-55
2022/04/14 02:23:31;;;;;;;;;;;;;;;21.54;35.00;95611.00;10452814;28;2027;-53
2022/04/14 02:28:32;;;;;;;;;;;;;;;21.55;34.88;95617.84;10444846;28;1895;-54
2022/04/14 02:33:32;;;;;;;;;;;;;;;21.52;34.97;95613.13;10447306;28;2167;-54
2022/04/14 02:38:32;;;;;;;;;;;;;;;21.54;34.91;95617.06;10448727;28;1860;-54
2022/04/14 02:43:35;;;;;;;;;;;;;;;21.53;34.83;95606.81;10449823;28;1698;-55
2022/04/14 02:48:36;;;;;;;;;;;;;;;21.49;34.67;95598.69;10440984;28;1891;-55
2022/04/14 02:53:36;;;;;;;;;;;;;;;21.48;34.67;95607.66;10445101;28;1948;-55
2022/04/14 02:58:39;;;;;;;;;;;;;;;21.50;34.70;95612.63;10437673;28;2316;-55
2022/04/14 03:03:40;;;;;;;;;;;;;;;21.47;34.80;95615.84;10438529;28;1838;-56
2022/04/14 03:08:41;;;;;;;;;;;;;;;21.48;34.57;95615.56;10437645;28;1941;-55
2022/04/14 03:13:42;;;;;;;;;;;;;;;21.46;34.65;95616.91;10444143;28;1847;-55
2022/04/14 03:18:42;;;;;;;;;;;;;;;21.47;34.64;95621.13;10441254;28;2208;-54
2022/04/14 03:23:43;;;;;;;;;;;;;;;21.48;34.43;95626.09;10446822;28;1964;-55
2022/04/14 03:28:45;;;;;;;;;;;;;;;21.51;34.62;95624.75;10447335;28;1946;-56
2022/04/14 03:33:46;;;;;;;;;;;;;;;21.51;34.48;95624.75;10451232;28;1902;-55
2022/04/14 03:38:46;;;;;;;;;;;;;;;21.53;34.51;95620.00;10452172;28;1816;-54
2022/04/14 03:43:46;;;;;;;;;;;;;;;21.54;34.15;95627.63;10456306;28;1980;-56
2022/04/14 03:48:47;;;;;;;;;;;;;;;21.53;34.36;95635.81;10452393;28;1902;-55
2022/04/14 03:53:47;;;;;;;;;;;;;;;21.53;34.29;95639.25;10455491;28;1790;-54
2022/04/14 03:58:47;;;;;;;;;;;;;;;21.54;34.26;95640.00;10449662;28;2200;-53
2022/04/14 04:03:48;;;;;;;;;;;;;;;21.56;34.39;95643.94;10453045;28;2157;-56
2022/04/14 04:08:48;;;;;;;;;;;;;;;21.52;34.08;95645.56;10454778;28;1956;-56
2022/04/14 04:13:49;;;;;;;;;;;;;;;21.50;34.11;95652.19;10454603;28;1763;-53
2022/04/14 04:18:49;;;;;;;;;;;;;;;21.50;34.16;95662.72;10451571;28;1970;-51
2022/04/14 04:23:49;;;;;;;;;;;;;;;21.46;34.24;95657.25;10448443;28;2222;-54
2022/04/14 04:28:49;;;;;;;;;;;;;;;21.48;34.31;95659.59;10446592;28;2182;-53
2022/04/14 04:33:51;;;;;;;;;;;;;;;21.51;34.19;95665.13;10445664;28;2261;-61
2022/04/14 04:38:51;;;;;;;;;;;;;;;21.50;34.13;95670.66;10456745;28;1798;-55
2022/04/14 04:43:52;;;;;;;;;;;;;;;21.51;34.24;95665.13;10474569;28;1852;-56
2022/04/14 04:48:53;;;;;;;;;;;;;;;21.52;34.05;95673.78;10452279;28;1973;-54
2022/04/14 04:53:54;;;;;;;;;;;;;;;21.53;34.16;95678.81;10454494;28;1764;-53
2022/04/14 04:58:54;;;;;;;;;;;;;;;21.53;34.30;95673.53;10451256;28;1938;-54
2022/04/14 05:03:55;;;;;;;;;;;;;;;21.51;34.21;95680.94;10455455;28;2084;-52
2022/04/14 05:08:56;;;;;;;;;;;;;;;21.49;34.29;95683.06;10453268;28;2027;-55
2022/04/14 05:13:57;;;;;;;;;;;;;;;21.48;34.17;95688.59;10451331;28;2177;-54
2022/04/14 05:18:57;;;;;;;;;;;;;;;21.48;34.25;95691.25;10473413;28;1977;-53
2022/04/14 05:23:57;;;;;;;;;;;;;;;21.49;34.37;95692.81;10436468;28;2069;-53
2022/04/14 05:28:58;;;;;;;;;;;;;;;21.47;34.39;95690.47;10474436;28;1985;-53
2022/04/14 05:33:58;;;;;;;;;;;;;;;21.49;34.45;95693.63;10451994;28;1850;-55
2022/04/14 05:38:59;;;;;;;;;;;;;;;21.45;34.34;95691.81;10451675;28;1474;-53
2022/04/14 05:44:00;;;;;;;;;;;;;;;21.47;34.46;95687.03;10450583;28;2004;-54
2022/04/14 05:49:01;;;;;;;;;;;;;;;21.43;34.50;95684.16;10449756;28;2217;-56
2022/04/14 05:54:02;;;;;;;;;;;;;;;21.43;34.50;95689.44;10449819;28;2063;-55
2022/04/14 05:59:03;;;;;;;;;;;;;;;21.42;34.28;95693.16;10445192;28;1857;-54
2022/04/14 06:04:03;;;;;;;;;;;;;;;21.46;34.59;95693.38;10441938;28;2163;-55
2022/04/14 06:09:04;;;;;;;;;;;;;;;21.44;34.68;95695.50;10434180;28;1909;-57
2022/04/14 06:14:05;;;;;;;;;;;;;;;21.44;35.02;95700.78;10449613;28;1859;-58
2022/04/14 06:19:06;;;;;;;;;;;;;;;21.46;35.14;95704.72;10448808;28;1968;-58
2022/04/14 06:24:06;;;;;;;;;;;;;;;21.46;34.97;95701.28;10446217;28;1946;-58
2022/04/14 06:29:07;;;;;;;;;;;;;;;21.48;35.12;95707.84;10446909;28;1925;-57
2022/04/14 06:34:08;;;;;;;;;;;;;;;21.48;35.19;95720.25;10449107;28;1835;-55
2022/04/14 06:39:12;;;;;;;;;;;;;;;21.55;35.02;95721.50;10448632;28;1819;-57
2022/04/14 06:44:13;;;;;;;;;;;;;;;21.63;34.95;95718.25;10451755;28;1916;-58
2022/04/14 06:49:15;;;;;;;;;;;;;;;21.57;35.02;95726.50;10448879;28;1969;-57
2022/04/14 06:54:17;;;;;;;;;;;;;;;21.58;35.11;95739.41;10442620;28;1827;-58
2022/04/14 06:59:18;;;;;;;;;;;;;;;21.58;34.91;95726.22;10428710;28;1805;-57
2022/04/14 07:04:19;;;;;;;;;;;;;;;21.55;35.02;95729.44;10429844;28;3002;-58
2022/04/14 07:09:20;;;;;;;;;;;;;;;21.47;35.15;95731.88;10446744;28;1961;-56
2022/04/14 07:14:21;;;;;;;;;;;;;;;21.45;34.88;95734.78;10428519;28;1863;-55
2022/04/14 07:19:21;;;;;;;;;;;;;;;21.48;35.19;95741.34;10434371;28;1775;-54
2022/04/14 07:24:22;;;;;;;;;;;;;;;21.46;35.03;95735.56;10432090;28;1827;-55
2022/04/14 07:29:22;;;;;;;;;;;;;;;21.48;35.14;95738.72;10432782;28;1960;-54
2022/04/14 07:34:22;;;;;;;;;;;;;;;21.55;35.05;95736.53;10434267;28;2028;-56
2022/04/14 07:39:23;;;;;;;;;;;;;;;21.60;35.01;95745.19;10427381;28;1909;-61
2022/04/14 07:44:23;;;;;;;;;;;;;;;21.59;34.86;95746.25;10437278;28;1787;-57
2022/04/14 07:49:23;;;;;;;;;;;;;;;21.55;34.81;95750.53;10433889;28;1914;-56
2022/04/14 07:54:24;;;;;;;;;;;;;;;21.58;34.65;95743.88;10432031;28;1964;-58
2022/04/14 07:59:25;;;;;;;;;;;;;;;21.57;34.94;95752.88;10419032;28;1859;-56
2022/04/14 08:04:26;;;;;;;;;;;;;;;21.57;34.85;95752.88;10427547;28;1862;-55
2022/04/14 08:09:27;;;;;;;;;;;;;;;21.59;34.76;95761.28;10431803;28;1969;-58
2022/04/14 08:14:28;;;;;;;;;;;;;;;21.59;34.79;95767.38;10434665;28;1842;-57
2022/04/14 08:19:28;;;;;;;;;;;;;;;21.59;34.87;95767.38;10433495;28;2105;-56
2022/04/14 08:24:29;;;;;;;;;;;;;;;21.60;34.95;95773.41;10431902;28;2066;-56
2022/04/14 08:29:29;;;;;;;;;;;;;;;21.57;34.81;95771.34;10418936;28;1906;-57
2022/04/14 08:34:30;;;;;;;;;;;;;;;21.56;34.91;95773.19;10423573;28;1866;-56
2022/04/14 08:39:31;;;;;;;;;;;;;;;21.56;34.88;95772.38;10428655;28;1839;-57
2022/04/14 08:44:31;;;;;;;;;;;;;;;21.55;34.96;95771.63;10429779;28;1806;-60
2022/04/14 08:49:31;;;;;;;;;;;;;;;21.56;34.88;95777.66;10428149;28;2061;-56
2022/04/14 08:54:33;;;;;;;;;;;;;;;21.55;34.77;95776.91;10426923;28;2048;-57
2022/04/14 08:59:33;;;;;;;;;;;;;;;21.53;34.97;95781.66;10428653;28;1811;-59
2022/04/14 09:04:37;;;;;;;;;;;;;;;21.55;34.83;95776.09;10426305;28;1941;-58
2022/04/14 09:09:38;;;;;;;;;;;;;;;21.54;35.03;95783.22;10411731;28;1895;-58
2022/04/14 09:14:39;;;;;;;;;;;;;;;21.53;35.18;95779.03;10432400;28;1768;-58
2022/04/14 09:19:39;;;;;;;;;;;;;;;21.56;34.97;95772.38;10420643;28;2029;-58
2022/04/14 09:24:40;;;;;;;;;;;;;;;21.58;34.87;95780.81;10424338;28;1791;-58
2022/04/14 09:29:47;;;;;;;;;;;;;;;21.54;34.71;95777.94;10428194;28;1934;-58
2022/04/14 09:34:49;;;;;;;;;;;;;;;21.55;34.82;95778.75;10423713;28;2019;-57
2022/04/14 09:39:53;;;;;;;;;;;;;;;21.54;35.00;95775.31;10425389;28;1768;-58
2022/04/14 09:44:54;;;;;;;;;;;;;;;21.55;34.84;95773.47;10423035;28;1934;-58
2022/04/14 09:49:55;;;;;;;;;;;;;;;21.54;35.21;95779.78;10427140;28;1912;-56
2022/04/14 09:55:11;;;;;;;;;;;;;;;21.53;35.24;95770.31;10429334;28;1961;-60
2022/04/14 10:00:13;;;;;;;;;;;;;;;21.58;34.76;95771.06;10428599;28;1519;-57
2022/04/14 10:05:14;;;;;;;;;;;;;;;21.59;35.03;95759.44;10432464;28;2014;-54
2022/04/14 10:10:21;;;;;;;;;;;;;;;21.66;35.58;95754.59;10407505;28;1937;-55
2022/04/14 10:15:22;;;;;;;;;;;;;;;21.58;35.68;95765.78;10425890;28;1743;-56
2022/04/14 10:20:25;;;;;;;;;;;;;;;21.57;35.66;95766.06;10441884;28;1861;-57
2022/04/14 10:25:25;;;;;;;;;;;;;;;21.60;36.01;95763.66;10430605;28;1893;-56
2022/04/14 10:30:26;;;;;;;;;;;;;;;21.56;36.08;95769.75;10422358;28;1977;-57
2022/04/14 10:35:27;;;;;;;;;;;;;;;21.56;35.91;95756.56;10427478;28;1818;-58
2022/04/14 10:40:27;;;;;;;;;;;;;;;21.60;36.15;95768.91;10427130;28;1897;-59
2022/04/14 10:45:28;;;;;;;;;;;;;;;21.62;36.27;95755.44;10426458;28;1795;-56
2022/04/14 10:50:29;;;;;;;;;;;;;;;21.61;36.65;95759.97;10421736;28;1971;-58
2022/04/14 10:55:33;;;;;;;;;;;;;;;21.64;36.71;95753.31;10433642;28;1848;-58
2022/04/14 11:00:38;;;;;;;;;;;;;;;21.65;36.63;95760.16;10435102;28;1778;-58
2022/04/14 11:05:43;;;;;;;;;;;;;;;21.61;36.62;95745.97;10437513;28;1861;-58
2022/04/14 11:11:07;;;;;;;;;;;;;;;21.62;36.63;95760.72;10427769;28;2132;-58
2022/04/14 11:16:27;;;;;;;;;;;;;;;21.62;36.82;95750.16;10431984;28;1862;-58
2022/04/14 11:21:33;;;;;;;;;;;;;;;21.71;36.44;95751.13;10432403;28;1922;-59
2022/04/14 11:26:35;;;;;;;;;;;;;;;21.61;36.71;95745.97;10434170;28;1843;-58
2022/04/14 11:31:36;;;;;;;;;;;;;;;21.61;36.72;95740.69;10429532;28;1949;-58
2022/04/14 11:36:40;;;;;;;;;;;;;;;21.60;36.98;95753.09;10418574;28;1958;-57
2022/04/14 11:41:44;;;;;;;;;;;;;;;21.60;37.00;95754.94;10433452;28;1892;-58
2022/04/14 11:46:48;;;;;;;;;;;;;;;21.58;36.81;95744.69;10433769;28;1866;-58
2022/04/14 11:51:49;;;;;;;;;;;;;;;21.59;37.00;95750.75;10430862;28;2082;-56
2022/04/14 11:56:50;;;;;;;;;;;;;;;21.58;37.31;95741.25;10433084;28;1834;-56
2022/04/14 12:01:51;;;;;;;;;;;;;;;21.57;37.18;95740.47;10433663;28;1960;-58
2022/04/14 12:06:52;;;;;;;;;;;;;;;21.60;37.04;95737.25;10455837;28;1749;-57
2022/04/14 12:11:52;;;;;;;;;;;;;;;21.58;37.80;95741.25;10427638;28;1980;-59
2022/04/14 12:16:53;;;;;;;;;;;;;;;21.58;37.43;95728.06;10430607;28;1768;-57
2022/04/14 12:22:01;;;;;;;;;;;;;;;21.59;37.72;95730.44;10437295;28;1851;-59
2022/04/14 12:27:02;;;;;;;;;;;;;;;21.59;37.43;95727.00;10435090;28;1841;-56
2022/04/14 12:32:09;;;;;;;;;;;;;;;21.58;37.74;95728.06;10427856;28;1918;-56
2022/04/14 12:37:12;;;;;;;;;;;;;;;21.58;37.64;95723.56;10444884;28;1805;-58
2022/04/14 12:42:14;;;;;;;;;;;;;;;21.57;37.91;95731.78;10428624;28;2209;-58
2022/04/14 12:47:15;;;;;;;;;;;;;;;21.57;37.65;95726.50;10427208;28;1971;-58
2022/04/14 12:52:17;;;;;;;;;;;;;;;21.57;37.68;95723.84;10430233;28;1847;-55
2022/04/14 12:57:18;;;;;;;;;;;;;;;21.58;38.43;95722.78;10428069;28;1792;-57
2022/04/14 13:02:21;;;;;;;;;;;;;;;21.59;38.06;95725.16;10419860;28;1824;-52
2022/04/14 13:07:21;;;;;;;;;;;;;;;21.64;38.10;95717.19;10428265;28;1910;-56
2022/04/14 13:12:41;;;;;;;;;;;;;;;21.61;38.14;95723.03;10430040;28;1819;-57
2022/04/14 13:17:42;;;;;;;;;;;;;;;21.60;38.16;95723.28;10427372;28;1783;-56
2022/04/14 13:22:43;;;;;;;;;;;;;;;21.60;38.20;95720.66;10430070;28;1750;-57
2022/04/14 13:27:43;;;;;;;;;;;;;;;21.57;38.19;95729.94;10433330;28;1987;-57
2022/04/14 13:32:44;;;;;;;;;;;;;;;21.58;38.34;95725.41;10424608;28;1823;-57
2022/04/14 13:37:44;;;;;;;;;;;;;;;21.56;38.20;95719.63;10429473;28;1812;-56
2022/04/14 13:42:45;;;;;;;;;;;;;;;21.54;38.92;95717.28;10431599;28;1822;-56
2022/04/14 13:47:45;;;;;;;;;;;;;;;21.58;38.41;95704.31;10431487;28;2074;-56
2022/04/14 13:52:45;;;;;;;;;;;;;;;21.56;38.59;95709.09;10428013;28;1932;-56
2022/04/14 13:57:46;;;;;;;;;;;;;;;21.57;38.42;95708.81;10425922;28;1818;-55
2022/04/14 14:02:46;;;;;;;;;;;;;;;21.55;38.68;95707.53;10428538;28;1883;-54
2022/04/14 14:07:47;;;;;;;;;;;;;;;21.54;38.67;95705.94;10423287;28;1906;-57
2022/04/14 14:12:47;;;;;;;;;;;;;;;21.54;38.73;95703.31;10430522;28;1845;-56
2022/04/14 14:17:48;;;;;;;;;;;;;;;21.53;38.52;95707.03;10426518;28;1882;-55
2022/04/14 14:22:49;;;;;;;;;;;;;;;21.55;38.85;95697.78;10424134;28;1890;-56
2022/04/14 14:27:49;;;;;;;;;;;;;;;21.53;38.07;95699.13;10425020;28;1962;-56
2022/04/14 14:32:49;;;;;;;;;;;;;;;21.55;38.50;95708.31;10432343;28;1815;-55
2022/04/14 14:37:50;;;;;;;;;;;;;;;21.55;38.57;95708.31;10424768;28;1815;-56
2022/04/14 14:42:50;;;;;;;;;;;;;;;21.54;38.79;95704.09;10427251;28;1849;-57
2022/04/14 14:47:50;;;;;;;;;;;;;;;21.54;38.60;95695.41;10427256;28;1958;-55
2022/04/14 14:52:52;;;;;;;;;;;;;;;21.52;38.63;95700.16;10421428;28;1977;-53
2022/04/14 15:03:12;;;;;;;;;;;;;;;21.54;38.45;95711.22;10426533;28;1531;-56
2022/04/14 15:08:12;;;;;;;;;;;;;;;21.52;38.91;95705.44;10429525;28;1965;-57
2022/04/14 15:13:13;;;;;;;;;;;;;;;21.50;38.59;95700.44;10429703;28;1452;-56
2022/04/14 15:18:13;;;;;;;;;;;;;;;21.53;38.52;95710.44;10426843;28;1742;-56
2022/04/14 15:23:14;;;;;;;;;;;;;;;21.50;38.38;95712.84;10428591;28;1505;-57
2022/04/14 15:28:14;;;;;;;;;;;;;;;21.49;38.41;95719.19;10432304;28;1910;-56
2022/04/14 15:33:14;;;;;;;;;;;;;;;21.48;38.39;95730.81;10455795;28;1519;-57
2022/04/14 15:38:15;;;;;;;;;;;;;;;21.47;39.06;95734.53;10444031;28;1464;-55
2022/04/14 15:43:16;;;;;;;;;;;;;;;21.45;38.42;95729.50;10447534;28;1518;-56
2022/04/14 15:48:17;;;;;;;;;;;;;;;21.48;38.67;95728.97;10470317;28;2391;-57
2022/04/14 15:53:18;;;;;;;;;;;;;;;21.47;38.44;95729.25;10395372;22;2095;-38
2022/04/14 15:58:18;;;;;;;;;;;;;;;21.45;38.41;95736.66;10363683;28;1515;-38
2022/04/14 16:03:18;;;;;;;;;;;;;;;21.47;38.13;95735.31;10363849;28;1646;-38
2022/04/14 16:08:19;;;;;;;;;;;;;;;21.46;38.68;95748.75;10361683;28;1914;-40
2022/04/14 16:13:20;;;;;;;;;;;;;;;21.45;38.18;95750.59;10363869;28;1599;-37
2022/04/14 16:18:20;;;;;;;;;;;;;;;21.45;38.06;95749.84;10361108;28;1649;-39
2022/04/14 16:23:20;;;;;;;;;;;;;;;21.47;38.34;95747.69;10367464;28;1426;-38
2022/04/14 16:28:21;;;;;;;;;;;;;;;21.42;38.59;95755.66;10366021;28;1963;-38
2022/04/14 16:33:21;;;;;;;;;;;;;;;21.44;38.07;95748.25;10365355;28;1522;-37
2022/04/14 16:38:21;;;;;;;;;;;;;;;21.42;37.86;95756.44;10367012;28;1451;-42
2022/04/14 16:43:21;;;;;;;;;;;;;;;21.39;38.32;95757.00;10365677;28;1521;-40
2022/04/14 16:48:23;;;;;;;;;;;;;;;21.42;37.73;95756.44;10364096;28;1934;-43
2022/04/14 16:53:23;;;;;;;;;;;;;;;21.39;38.33;95766.78;10365582;28;1406;-40
2022/04/14 16:58:23;;;;;;;;;;;;;;;21.43;38.20;95762.50;10363353;28;1833;-41
2022/04/14 17:03:24;;;;;;;;;;;;;;;21.42;38.09;95768.84;10364133;28;1432;-43
2022/04/14 17:08:26;;;;;;;;;;;;;;;21.44;37.94;95769.34;10360734;28;1910;-39
2022/04/14 17:13:26;;;;;;;;;;;;;;;21.43;37.89;95767.78;10362474;28;1574;-38
2022/04/14 17:18:27;;;;;;;;;;;;;;;21.44;38.15;95782.53;10367789;28;1811;-39
2022/04/14 17:28:47;;;;;;;;;;;;;;;21.39;37.75;95778.09;10377781;28;1955;-39
2022/04/14 17:33:48;;;;;;;;;;;;;;;21.34;38.11;95785.25;10359969;28;1567;-38
2022/04/14 17:38:48;;;;;;;;;;;;;;;21.38;37.74;95788.91;10370670;28;1410;-40
2022/04/14 17:43:48;;;;;;;;;;;;;;;21.36;37.91;95802.38;10363226;28;2018;-40
2022/04/14 17:48:49;;;;;;;;;;;;;;;21.40;37.82;95792.06;10362549;28;1906;-39
2022/04/14 17:53:49;;;;;;;;;;;;;;;21.35;38.14;95803.44;10361191;28;1450;-38
2022/04/14 17:58:49;;;;;;;;;;;;;;;21.36;37.83;95804.22;10358966;28;1482;-38
2022/04/14 18:03:50;;;;;;;;;;;;;;;21.34;37.65;95811.63;10361099;28;2110;-39
2022/04/14 18:08:50;;;;;;;;;;;;;;;21.34;37.99;95814.25;10358385;28;1910;-39
2022/04/14 18:13:50;;;;;;;;;;;;;;;21.32;37.78;95819.03;10341676;28;1517;-39
2022/04/14 18:18:51;;;;;;;;;;;;;;;21.31;38.08;95828.00;10360931;28;1430;-39
2022/04/14 18:23:51;;;;;;;;;;;;;;;21.28;37.93;95837.25;10361879;28;1522;-41
2022/04/14 18:28:51;;;;;;;;;;;;;;;21.28;37.92;95842.53;10356401;28;1918;-38
2022/04/14 18:33:52;;;;;;;;;;;;;;;21.34;37.79;95848.53;10359045;28;1609;-39
2022/04/14 18:38:53;;;;;;;;;;;;;;;21.30;37.72;95858.88;10360201;28;1478;-38
2022/04/14 18:43:53;;;;;;;;;;;;;;;21.29;37.86;95857.28;10360336;28;1438;-39
2022/04/14 18:48:54;;;;;;;;;;;;;;;21.28;37.73;95870.75;10355565;28;1965;-42
2022/04/14 18:53:56;;;;;;;;;;;;;;;21.26;38.18;95878.13;10356663;28;1459;-41
2022/04/14 18:58:56;;;;;;;;;;;;;;;21.26;37.72;95880.78;10353096;28;1458;-41
2022/04/14 19:03:57;;;;;;;;;;;;;;;21.24;38.04;95880.25;10356186;28;1895;-41
2022/04/14 19:08:58;;;;;;;;;;;;;;;21.26;38.15;95888.69;10361155;28;1902;-39
2022/04/14 19:13:59;;;;;;;;;;;;;;;21.21;37.38;95897.41;10361459;28;1944;-38
2022/04/14 19:19:00;;;;;;;;;;;;;;;21.23;37.90;95900.56;10364129;28;1490;-39
2022/04/14 19:24:01;;;;;;;;;;;;;;;21.22;38.16;95904.25;10365838;28;1581;-39
2022/04/14 19:29:01;;;;;;;;;;;;;;;21.20;37.54;95913.50;10367676;28;1914;-39
2022/04/14 19:34:02;;;;;;;;;;;;;;;21.21;38.11;95928.25;10365498;28;1521;-38
2022/04/14 19:39:03;;;;;;;;;;;;;;;21.22;37.59;95925.34;10364865;28;1556;-39
2022/04/14 19:44:03;;;;;;;;;;;;;;;21.20;37.71;95927.47;10360609;28;1505;-40
2022/04/14 19:49:05;;;;;;;;;;;;;;;21.17;37.81;95929.84;10363493;28;2033;-38
2022/04/14 19:54:08;;;;;;;;;;;;;;;21.17;38.26;95932.50;10358972;28;1450;-41
2022/04/14 19:59:08;;;;;;;;;;;;;;;21.17;37.58;95929.84;10359853;28;1592;-40
2022/04/14 20:04:08;;;;;;;;;;;;;;;21.17;38.14;95927.22;10361367;28;1564;-39
2022/04/14 20:09:09;;;;;;;;;;;;;;;21.15;37.95;95927.50;10372094;28;1910;-41
2022/04/14 20:14:10;;;;;;;;;;;;;;;21.15;37.83;95924.06;10368268;28;1514;-38
2022/04/14 20:19:12;;;;;;;;;;;;;;;21.18;37.52;95928.81;10378860;28;1540;-39
2022/04/14 20:24:13;;;;;;;;;;;;;;;21.15;37.70;95937.25;10370513;28;1547;-39
2022/04/14 20:29:13;;;;;;;;;;;;;;;21.16;37.45;95937.00;10365849;28;1910;-42
2022/04/14 20:34:13;;;;;;;;;;;;;;;21.15;37.51;95935.41;10378018;28;1581;-40
2022/04/14 20:39:15;;;;;;;;;;;;;;;21.16;37.31;95930.94;10363379;28;1510;-39
2022/04/14 20:44:15;;;;;;;;;;;;;;;21.16;37.23;95937.00;10362080;28;1554;-38
2022/04/14 20:49:15;;;;;;;;;;;;;;;21.15;37.59;95935.41;10360254;28;1978;-38
2022/04/14 20:54:15;;;;;;;;;;;;;;;21.13;37.57;95939.38;10358424;28;1419;-43
2022/04/14 20:59:16;;;;;;;;;;;;;;;21.14;37.67;95940.97;10362397;28;1531;-39
2022/04/14 21:04:17;;;;;;;;;;;;;;;21.12;37.44;95949.16;10361267;28;1469;-39
2022/04/14 21:09:18;;;;;;;;;;;;;;;21.09;37.14;95944.41;10362586;28;1910;-39
2022/04/14 21:14:18;;;;;;;;;;;;;;;21.11;36.70;95949.41;10358566;28;2871;-40
2022/04/14 21:19:19;;;;;;;;;;;;;;;21.13;37.57;95955.19;10358243;28;1558;-38
2022/04/14 21:24:19;;;;;;;;;;;;;;;21.10;37.42;95968.91;10361015;28;1459;-38
2022/04/14 21:29:20;;;;;;;;;;;;;;;21.11;37.01;95965.22;10359052;28;1907;-40
2022/04/14 21:34:20;;;;;;;;;;;;;;;21.08;37.37;95972.59;10354801;28;1408;-37
2022/04/14 21:39:21;;;;;;;;;;;;;;;21.08;37.36;95968.41;10356673;28;1510;-38
2022/04/14 21:44:21;;;;;;;;;;;;;;;21.12;36.93;95979.97;10355083;28;1518;-43
2022/04/14 21:49:22;;;;;;;;;;;;;;;21.06;37.32;95985.25;10358089;28;1909;-38
2022/04/14 21:54:22;;;;;;;;;;;;;;;21.05;37.12;95983.69;10351941;28;1418;-41
2022/04/14 21:59:22;;;;;;;;;;;;;;;21.10;36.85;95979.47;10373805;23;3570;-56
2022/04/14 22:04:23;;;;;;;;;;;;;;;21.06;37.35;95995.03;10349872;28;1437;-56
2022/04/14 22:09:25;;;;;;;;;;;;;;;21.10;36.78;95995.28;10349247;28;1922;-54
2022/04/14 22:14:26;;;;;;;;;;;;;;;21.09;36.89;96005.03;10348182;28;1506;-57
2022/04/14 22:19:26;;;;;;;;;;;;;;;21.12;36.52;96019.53;10347993;28;1518;-57
2022/04/14 22:24:26;;;;;;;;;;;;;;;21.10;36.40;96019.00;10355753;28;1567;-56
2022/04/14 22:29:27;;;;;;;;;;;;;;;21.10;36.74;96027.69;10354168;28;1910;-56
2022/04/14 22:34:27;;;;;;;;;;;;;;;21.06;36.59;96037.22;10350356;28;1640;-54
2022/04/14 22:39:27;;;;;;;;;;;;;;;21.06;36.90;96037.97;10350897;28;1486;-54
2022/04/14 22:44:27;;;;;;;;;;;;;;;21.04;36.72;96050.63;10369824;28;1453;-54
2022/04/14 22:49:28;;;;;;;;;;;;;;;21.02;37.17;96052.75;10365399;28;1914;-58
2022/04/14 22:54:28;;;;;;;;;;;;;;;21.03;37.22;96053.53;10365541;28;2069;-57
2022/04/14 22:59:28;;;;;;;;;;;;;;;21.02;36.63;96047.47;10370152;28;1519;-57
2022/04/14 23:04:30;;;;;;;;;;;;;;;21.05;36.77;96051.44;10351578;28;1495;-55
2022/04/14 23:09:30;;;;;;;;;;;;;;;20.99;36.90;96053.28;10369184;28;1919;-56
2022/04/14 23:14:30;;;;;;;;;;;;;;;21.04;36.93;96055.91;10368765;28;1535;-57
2022/04/14 23:19:30;;;;;;;;;;;;;;;21.00;36.38;96046.94;10369837;28;1770;-58
2022/04/14 23:24:32;;;;;;;;;;;;;;;21.02;36.61;96046.69;10366770;28;1481;-54
2022/04/14 23:29:33;;;;;;;;;;;;;;;21.00;36.52;96046.13;10353641;28;1977;-58
2022/04/14 23:34:36;;;;;;;;;;;;;;;21.01;36.82;96040.63;10365380;28;1491;-56
2022/04/14 23:44:40;;;;;;;;;;;;;;;21.02;36.87;96042.22;10368499;28;1472;-55
2022/04/14 23:49:40;;;;;;;;;;;;;;;20.98;36.93;96042.97;10366502;28;1914;-57
2022/04/14 23:54:41;;;;;;;;;;;;;;;20.97;37.10;96047.47;10369740;28;1465;-56
2022/04/14 23:59:42;;;;;;;;;;;;;;;20.98;36.89;96061.44;10375181;28;1550;-56
